Flight Information

DEPARTURE
VAN NUYS, CA
Elevation:
802
Runways:
16L/34R - 4013x75 - ASPH-G
16R/34L - 8001x150 - ASPH-G
ATIS:
127.55 818-780-4993
Clearance Delivery:
126.6
Ground:
121.7
Tower:
119.3 (162°-345° and dep Rwy 16R-34L)
120.2 (346°-161° and dep Rwy 16L-34R)
DESTINATION
SANTA MONICA, CA
Elevation:
169
TPA:
1169 (est.)
Runways:
H1 - 40x40 - ASPH-G
3/21 - 3500x150 - ASPH-G
ATIS:
119.15 310-450-4620
Tower:
120.1
Ground:
121.9


11.8 NM180° True-14° Var166° HDG

Flight Plan:
(click to file on line)

1. Type
2. Aircraft Identification
3. Aircraft Type / Special Equipment
4. True Airspeed
kts
5. Departure Airport
(ICAO code)
6. Arriving Airport
(ICAO code)
7. Cruising Altitude
ft
8. Alternate Airport
(ICAO code)
9. Route of Flight
10. Remarks


00:00:00 Departure ATIS: Destination ATIS:

Clearance Limit:
Route:
Altitude: Expect in minutes
Frequency:
Transponder: (7500 Hijack / 7600 Lost Comms / 7700 Emergency)


KVNY 261451Z 00000KT 10SM CLR 23/14 A2998 RMK AO2 SLP141 T02280144 51013
Time: 2022-06-26T14:51:00Z
1656255394
Winds: calm
Visibility: 10.0 sm
Clouds (AGL): CLR
Temperature: 22.8 C
Dew Point: 14.4 C
Pressure: 29.97933 in Hgbr

KSMO 261351Z 00000KT 5SM BR FEW004 SCT009 17/15 A2997 RMK AO2 SLP149 T01670150
Time: 2022-06-26T13:51:00Z
1656255395
Winds: calm
Visibility: 5.0 sm
Clouds (AGL): FEW 400
SCT 900
Temperature: 16.7 C
Dew Point: 15.0 C
Pressure: 29.970472 in Hgbr


Notes:

Data extracted from FAA Digital Chart Supplement. Effective: 0901Z Thursday, 27 JAN 2022 to 0900z Thursday, 24 MAR 2022
Current ATIS data is provided courtisy of PilotEdge.